Time;durP1;ratioP1;P1;durP2;ratioP2;P2;SDS_P1;SDS_P2;PMS_P1;PMS_P2;Temp;Humidity;BMP_temperature;BMP_pressure;BME280_temperature;BME280_humidity;BME280_pressure;Samples;Min_cycle;Max_cycle;Signal;HPM_P1;HPM_P2
2022/05/22 04:02:08;;;;;;;4.93;4.73;;;12.50;99.90;;;;;;5201076;23;20488;-64
2022/05/22 04:04:35;;;;;;;6.57;5.60;;;12.40;99.90;;;;;;4997102;28;20457;-64
2022/05/22 04:07:02;;;;;;;5.93;5.33;;;12.50;99.90;;;;;;4997455;28;20450;-64
2022/05/22 04:09:29;;;;;;;4.90;4.60;;;12.50;99.90;;;;;;4997449;28;20457;-65
2022/05/22 04:11:56;;;;;;;5.73;5.23;;;12.50;99.90;;;;;;4997367;28;20913;-64
2022/05/22 04:14:22;;;;;;;6.40;5.37;;;12.50;99.90;;;;;;4997463;28;20481;-64
2022/05/22 04:16:49;;;;;;;5.93;5.43;;;12.60;99.90;;;;;;4997344;28;20457;-64
2022/05/22 04:19:17;;;;;;;6.73;4.90;;;12.60;99.90;;;;;;4997279;28;20453;-64
2022/05/22 04:21:44;;;;;;;5.73;5.33;;;12.60;99.90;;;;;;4997053;28;20481;-64
2022/05/22 04:26:52;;;;;;;6.20;4.50;;;12.60;99.90;;;;;;4985300;28;20446;-64
2022/05/22 04:29:19;;;;;;;5.57;5.07;;;12.70;99.90;;;;;;4996984;28;20856;-64
2022/05/22 04:31:46;;;;;;;5.47;5.07;;;12.70;99.90;;;;;;4996807;28;20473;-64
2022/05/22 04:34:12;;;;;;;5.40;5.00;;;12.70;99.90;;;;;;4996785;28;20481;-64
2022/05/22 04:36:40;;;;;;;4.70;4.20;;;12.70;99.90;;;;;;4996417;28;20946;-63
2022/05/22 04:39:07;;;;;;;6.47;5.73;;;12.70;99.90;;;;;;4996812;28;20454;-64
2022/05/22 04:41:34;;;;;;;5.80;5.40;;;12.80;99.90;;;;;;4996777;28;20521;-64
2022/05/22 04:44:00;;;;;;;5.50;4.60;;;12.80;99.90;;;;;;4996741;28;20457;-64
2022/05/22 04:46:27;;;;;;;5.17;4.77;;;12.90;99.90;;;;;;4996714;28;20461;-64
2022/05/22 04:48:54;;;;;;;5.33;4.83;;;13.00;99.90;;;;;;4996441;28;20937;-64
2022/05/22 04:51:20;;;;;;;6.63;6.13;;;13.10;99.90;;;;;;4997659;28;20556;-63
2022/05/22 04:53:48;;;;;;;5.33;5.00;;;13.10;99.90;;;;;;4996463;28;20481;-64
2022/05/22 04:56:15;;;;;;;4.90;4.43;;;13.20;99.90;;;;;;4996655;28;20462;-63
2022/05/22 04:58:42;;;;;;;6.10;5.50;;;13.20;99.90;;;;;;4996972;28;20441;-63
2022/05/22 05:01:10;;;;;;;5.10;4.80;;;13.30;99.90;;;;;;4996469;28;20895;-66
2022/05/22 05:03:37;;;;;;;14.37;5.80;;;13.30;99.90;;;;;;4996474;28;20450;-64
2022/05/22 05:06:04;;;;;;;4.80;4.50;;;13.30;99.90;;;;;;4996864;28;20504;-64
2022/05/22 05:08:31;;;;;;;6.97;5.30;;;13.40;99.90;;;;;;4996435;28;20446;-63
2022/05/22 05:11:00;;;;;;;4.80;4.50;;;13.50;99.90;;;;;;4996140;28;20473;-63
2022/05/22 05:13:28;;;;;;;6.50;4.10;;;13.60;99.90;;;;;;4996160;28;20481;-63
2022/05/22 05:16:05;;;;;;;4.00;3.80;;;13.70;99.90;;;;;;4996173;28;20454;-63
2022/05/22 05:18:33;;;;;;;4.63;4.23;;;13.80;99.90;;;;;;4996127;28;20446;-63
2022/05/22 05:21:02;;;;;;;4.60;4.20;;;13.90;99.90;;;;;;4995938;28;20470;-63
2022/05/22 05:23:29;;;;;;;4.17;3.87;;;13.90;99.90;;;;;;4995744;28;20933;-63
2022/05/22 05:25:55;;;;;;;4.20;3.90;;;14.10;99.90;;;;;;4995879;28;20457;-63
2022/05/22 05:28:23;;;;;;;5.50;5.00;;;14.30;99.90;;;;;;4995991;28;20465;-63
2022/05/22 05:30:50;;;;;;;4.47;4.17;;;14.50;99.90;;;;;;4995769;28;20473;-63
2022/05/22 05:33:17;;;;;;;4.83;4.30;;;14.60;99.90;;;;;;4995434;28;20870;-63
2022/05/22 05:35:44;;;;;;;3.80;3.50;;;14.70;99.90;;;;;;4995461;28;20950;-63
2022/05/22 05:38:11;;;;;;;5.80;3.97;;;14.80;99.90;;;;;;4995666;28;20457;-64
2022/05/22 05:40:39;;;;;;;5.73;4.90;;;14.70;99.90;;;;;;4995579;28;20473;-63
2022/05/22 05:43:06;;;;;;;3.53;3.30;;;14.80;99.90;;;;;;4995818;28;20457;-63
2022/05/22 05:45:34;;;;;;;4.60;3.90;;;14.80;99.90;;;;;;4995840;28;20458;-63
2022/05/22 05:48:01;;;;;;;4.37;3.83;;;14.90;99.90;;;;;;4995225;28;20461;-63
2022/05/22 05:50:28;;;;;;;5.03;3.43;;;15.00;99.90;;;;;;4995446;28;20457;-63
2022/05/22 05:52:57;;;;;;;5.70;3.83;;;15.10;99.90;;;;;;4995251;28;20453;-63
2022/05/22 05:55:25;;;;;;;3.53;3.30;;;15.30;99.90;;;;;;4995337;28;20477;-64
2022/05/22 05:57:52;;;;;;;4.10;3.70;;;15.40;99.90;;;;;;4995374;28;20489;-64
2022/05/22 06:00:22;;;;;;;4.67;3.53;;;15.50;99.90;;;;;;4994992;28;20461;-63
2022/05/22 06:02:51;;;;;;;4.17;3.77;;;15.60;99.90;;;;;;4994796;28;20449;-63
2022/05/22 06:05:18;;;;;;;4.77;4.30;;;15.70;99.90;;;;;;4995249;28;20511;-64
2022/05/22 06:07:49;;;;;;;4.20;3.70;;;15.90;99.90;;;;;;4995170;28;20462;-63
2022/05/22 06:10:16;;;;;;;4.23;3.93;;;16.00;99.90;;;;;;4994899;28;20928;-63
2022/05/22 06:12:44;;;;;;;5.40;4.10;;;16.10;99.90;;;;;;4995244;28;20453;-63
2022/05/22 06:15:11;;;;;;;4.17;3.87;;;16.20;99.90;;;;;;4995152;28;20915;-63
2022/05/22 06:17:43;;;;;;;3.70;3.40;;;16.20;99.90;;;;;;4995082;28;20461;-63
2022/05/22 06:20:14;;;;;;;4.30;3.90;;;16.40;99.90;;;;;;4995013;28;20443;-65
2022/05/22 06:22:42;;;;;;;3.53;3.33;;;16.50;99.90;;;;;;4995717;28;20449;-64
2022/05/22 06:25:10;;;;;;;3.87;3.60;;;16.60;99.90;;;;;;4995075;28;20497;-64
2022/05/22 06:27:37;;;;;;;4.33;3.80;;;16.70;99.90;;;;;;4994629;28;20466;-64
2022/05/22 06:30:06;;;;;;;6.47;3.40;;;16.90;99.90;;;;;;4994761;28;20458;-63
2022/05/22 06:32:33;;;;;;;4.07;3.57;;;17.10;99.90;;;;;;4998365;28;20473;-65
2022/05/22 06:35:00;;;;;;;5.00;3.90;;;17.30;99.90;;;;;;4998625;28;20509;-64
2022/05/22 06:37:28;;;;;;;5.70;4.00;;;17.30;99.90;;;;;;4994471;28;20970;-63
2022/05/22 06:39:54;;;;;;;3.83;3.63;;;17.40;99.90;;;;;;4994761;28;20456;-64
2022/05/22 06:42:24;;;;;;;4.30;3.67;;;17.70;99.90;;;;;;4994651;28;20925;-64
2022/05/22 06:44:53;;;;;;;4.33;4.03;;;18.10;99.90;;;;;;4994525;28;20568;-64
2022/05/22 06:47:20;;;;;;;3.97;3.30;;;18.50;99.90;;;;;;4994537;28;20453;-64
2022/05/22 06:49:47;;;;;;;3.23;3.03;;;19.10;99.90;;;;;;4995139;28;20458;-64
2022/05/22 06:52:15;;;;;;;4.23;3.30;;;19.80;99.90;;;;;;4994175;28;20623;-64
2022/05/22 06:54:43;;;;;;;4.63;2.73;;;20.50;99.90;;;;;;4994398;28;20478;-63
2022/05/22 06:57:10;;;;;;;4.73;3.17;;;21.10;99.90;;;;;;4994564;28;20454;-64
2022/05/22 06:59:37;;;;;;;3.00;2.80;;;22.00;99.90;;;;;;4994451;28;20461;-63
2022/05/22 07:02:04;;;;;;;3.53;3.33;;;22.70;99.90;;;;;;4994082;28;20485;-63
2022/05/22 07:04:31;;;;;;;3.50;3.20;;;23.20;99.90;;;;;;4994133;28;20464;-64
2022/05/22 07:06:58;;;;;;;2.67;2.50;;;23.50;99.90;;;;;;4994442;28;20849;-64
2022/05/22 07:09:24;;;;;;;4.17;2.97;;;23.90;99.90;;;;;;4994355;28;20458;-63
2022/05/22 07:11:54;;;;;;;6.50;3.23;;;24.40;99.90;;;;;;4994405;28;20477;-65
2022/05/22 07:14:22;;;;;;;3.97;2.83;;;24.90;98.30;;;;;;4994370;28;20520;-64
2022/05/22 07:16:48;;;;;;;3.03;2.73;;;25.30;96.20;;;;;;4998627;28;20453;-63
2022/05/22 07:19:17;;;;;;;3.10;2.80;;;25.60;94.60;;;;;;4998569;28;20457;-64
2022/05/22 07:21:44;;;;;;;3.03;2.83;;;25.70;94.40;;;;;;4998242;28;20528;-64
2022/05/22 07:24:10;;;;;;;6.17;2.60;;;26.00;94.90;;;;;;4998358;28;20458;-64
2022/05/22 07:26:38;;;;;;;6.23;3.20;;;26.30;93.30;;;;;;4997830;28;20457;-64
2022/05/22 07:29:06;;;;;;;3.17;2.20;;;26.60;91.10;;;;;;4997981;28;20453;-63
2022/05/22 07:31:34;;;;;;;3.73;3.27;;;26.60;90.40;;;;;;4998018;28;20477;-64
2022/05/22 07:34:01;;;;;;;2.30;2.20;;;27.00;87.50;;;;;;4998027;28;20477;-64
2022/05/22 07:36:28;;;;;;;2.27;2.17;;;27.20;87.80;;;;;;4998003;28;20464;-64
2022/05/22 07:38:54;;;;;;;2.60;2.50;;;27.70;83.50;;;;;;4997891;28;20461;-64
2022/05/22 07:41:21;;;;;;;3.07;2.77;;;28.00;83.40;;;;;;4997792;28;20481;-65
2022/05/22 07:43:48;;;;;;;2.90;2.73;;;28.50;78.60;;;;;;4997818;28;20504;-64
2022/05/22 07:46:17;;;;;;;6.03;2.80;;;28.60;76.70;;;;;;4997842;28;20457;-64
2022/05/22 07:48:44;;;;;;;2.70;2.23;;;28.20;79.90;;;;;;4997894;28;20456;-64
2022/05/22 07:51:12;;;;;;;2.57;2.37;;;28.40;74.60;;;;;;4997734;28;20508;-64
2022/05/22 07:53:38;;;;;;;2.00;1.90;;;28.70;74.50;;;;;;4998261;28;20573;-64
2022/05/22 07:56:05;;;;;;;2.70;2.27;;;29.00;73.90;;;;;;4997484;28;20504;-64
2022/05/22 07:58:33;;;;;;;3.97;2.33;;;28.80;73.00;;;;;;4997671;28;20820;-64
2022/05/22 08:01:00;;;;;;;2.07;1.90;;;28.90;69.40;;;;;;4997156;28;21042;-64
2022/05/22 08:03:29;;;;;;;1.83;1.73;;;29.10;69.00;;;;;;4998328;28;20461;-64
2022/05/22 08:05:56;;;;;;;2.90;2.30;;;29.40;69.30;;;;;;4997480;28;20450;-64
2022/05/22 08:08:23;;;;;;;2.17;2.07;;;29.40;70.50;;;;;;4997377;28;20464;-64
2022/05/22 08:10:50;;;;;;;2.60;2.40;;;29.60;67.30;;;;;;4997201;28;20872;-65
2022/05/22 08:13:19;;;;;;;2.60;2.40;;;30.00;66.80;;;;;;4997074;28;20963;-65
2022/05/22 08:15:46;;;;;;;2.90;2.70;;;30.30;69.90;;;;;;4996883;28;20991;-65
2022/05/22 08:18:13;;;;;;;2.63;2.43;;;30.20;66.40;;;;;;4997242;28;20458;-64
2022/05/22 08:20:43;;;;;;;2.80;2.60;;;30.20;67.00;;;;;;4997137;28;20486;-66
2022/05/22 08:23:13;;;;;;;2.30;2.10;;;30.70;66.00;;;;;;4998090;28;20441;-65
2022/05/22 08:25:40;;;;;;;2.77;2.57;;;30.50;64.50;;;;;;4997328;28;20859;-65
2022/05/22 08:28:07;;;;;;;2.97;2.10;;;30.60;64.50;;;;;;4997010;28;20460;-65
2022/05/22 08:30:34;;;;;;;3.40;2.60;;;30.90;63.90;;;;;;4996966;28;20524;-65
2022/05/22 08:33:02;;;;;;;2.73;2.20;;;31.50;60.90;;;;;;4996898;28;20461;-65
2022/05/22 08:35:32;;;;;;;2.47;2.27;;;32.00;59.50;;;;;;4996839;28;20527;-64
2022/05/22 08:38:00;;;;;;;4.57;2.20;;;32.60;58.40;;;;;;4996671;28;20831;-65
2022/05/22 08:40:34;;;;;;;1.80;1.70;;;32.40;58.50;;;;;;4996787;28;20453;-65
2022/05/22 08:43:05;;;;;;;3.63;3.00;;;32.00;56.60;;;;;;4996582;28;20442;-65
2022/05/22 08:45:41;;;;;;;2.23;2.03;;;31.60;57.40;;;;;;4996858;28;20442;-64
2022/05/22 08:48:13;;;;;;;2.10;2.00;;;31.80;58.20;;;;;;4997120;28;20445;-65
2022/05/22 08:50:42;;;;;;;6.60;2.37;;;32.10;56.50;;;;;;4996590;28;20578;-65
2022/05/22 08:53:16;;;;;;;4.33;2.20;;;32.50;55.40;;;;;;4996588;28;20949;-65
2022/05/22 08:58:58;;;;;;;2.47;2.27;;;32.70;54.00;;;;;;4996555;28;20533;-66
2022/05/22 09:01:34;;;;;;;4.70;1.80;;;33.00;55.60;;;;;;4996531;28;20828;-64
2022/05/22 09:04:11;;;;;;;1.80;1.70;;;32.40;53.10;;;;;;4996494;28;20449;-64
2022/05/22 09:06:43;;;;;;;2.93;1.60;;;32.50;52.60;;;;;;4996336;28;20449;-64
2022/05/22 09:09:11;;;;;;;1.87;1.57;;;32.40;53.50;;;;;;4996407;28;20464;-64
2022/05/22 09:11:55;;;;;;;1.83;1.73;;;32.10;54.20;;;;;;4996181;28;20488;-64
2022/05/22 09:14:26;;;;;;;1.90;1.63;;;31.80;55.60;;;;;;4996152;28;20804;-64
2022/05/22 09:17:01;;;;;;;2.93;1.57;;;32.10;52.60;;;;;;4995932;28;20921;-65
2022/05/22 09:19:36;;;;;;;5.13;2.00;;;32.00;54.40;;;;;;4996423;28;20441;-64
2022/05/22 09:22:14;;;;;;;2.77;1.40;;;32.40;57.70;;;;;;4996215;28;20532;-63
2022/05/22 09:24:52;;;;;;;1.40;1.30;;;32.60;52.00;;;;;;4996516;28;20444;-65
2022/05/22 09:27:29;;;;;;;2.30;1.83;;;33.10;52.60;;;;;;4996140;28;20437;-65
2022/05/22 09:30:04;;;;;;;2.20;1.70;;;33.40;51.30;;;;;;4995931;28;20437;-65
2022/05/22 09:32:46;;;;;;;1.97;1.60;;;33.80;51.40;;;;;;4995736;28;20567;-65
2022/05/22 09:35:21;;;;;;;2.13;1.50;;;34.00;49.70;;;;;;4995558;28;21030;-65
2022/05/22 09:37:58;;;;;;;1.53;1.20;;;34.20;49.00;;;;;;4994935;28;20441;-65
2022/05/22 09:40:34;;;;;;;2.13;1.70;;;34.60;50.90;;;;;;4995855;28;20448;-65
2022/05/22 09:43:15;;;;;;;1.40;1.40;;;35.00;48.50;;;;;;4995753;28;20441;-65
2022/05/22 09:45:55;;;;;;;1.70;1.60;;;35.20;47.70;;;;;;4995740;28;20437;-67
2022/05/22 09:48:42;;;;;;;3.00;2.23;;;35.20;50.30;;;;;;4995871;28;20446;-65
2022/05/22 09:51:15;;;;;;;2.43;1.60;;;34.70;49.10;;;;;;4995609;28;20473;-65
2022/05/22 09:53:58;;;;;;;2.20;2.03;;;34.50;48.20;;;;;;4996597;28;20446;-65
2022/05/22 09:56:37;;;;;;;1.40;1.30;;;34.00;49.00;;;;;;4995988;28;20465;-65
2022/05/22 09:59:21;;;;;;;2.10;1.40;;;34.20;49.00;;;;;;5001223;28;20444;-65
2022/05/22 10:01:55;;;;;;;5.73;2.23;;;34.10;49.80;;;;;;5007657;28;20847;-65
2022/05/22 10:04:32;;;;;;;1.47;1.40;;;34.30;49.00;;;;;;4997876;28;20449;-65
2022/05/22 10:07:05;;;;;;;2.10;1.43;;;34.70;47.70;;;;;;4995427;28;20448;-66
2022/05/22 10:09:44;;;;;;;2.10;1.53;;;35.10;51.30;;;;;;4995129;28;20821;-65
2022/05/22 10:12:24;;;;;;;2.70;1.63;;;34.30;48.90;;;;;;4995131;28;20473;-65
2022/05/22 10:15:02;;;;;;;1.57;1.57;;;34.60;50.40;;;;;;4994842;28;20971;-65
2022/05/22 10:17:43;;;;;;;1.80;1.70;;;34.40;47.40;;;;;;4995164;28;20448;-65
2022/05/22 10:20:21;;;;;;;1.70;1.60;;;34.40;50.80;;;;;;4995136;28;20441;-65
2022/05/22 10:23:02;;;;;;;1.50;1.40;;;34.50;49.90;;;;;;4994952;28;20445;-65
2022/05/22 10:25:40;;;;;;;1.97;1.80;;;35.20;49.30;;;;;;4994821;28;20901;-65
2022/05/22 10:28:14;;;;;;;2.43;2.07;;;34.50;49.30;;;;;;4994960;28;20445;-65
2022/05/22 10:30:46;;;;;;;2.33;2.13;;;34.30;49.00;;;;;;4994823;28;20477;-64
2022/05/22 10:33:20;;;;;;;2.60;2.40;;;33.70;49.00;;;;;;4994940;28;20437;-65
2022/05/22 10:35:53;;;;;;;2.43;2.33;;;33.90;49.30;;;;;;4994769;28;20465;-64
2022/05/22 10:38:23;;;;;;;1.77;1.67;;;33.80;50.50;;;;;;4994866;28;20489;-64
2022/05/22 10:43:42;;;;;;;1.70;1.60;;;33.50;50.00;;;;;;4994707;28;20488;-65
2022/05/22 10:46:09;;;;;;;3.07;2.30;;;33.80;50.40;;;;;;4994678;28;20445;-64
2022/05/22 10:48:47;;;;;;;2.50;2.17;;;33.50;50.00;;;;;;4994430;28;20461;-64
2022/05/22 10:51:23;;;;;;;2.27;2.17;;;32.60;51.00;;;;;;4994511;28;20477;-64
2022/05/22 10:53:53;;;;;;;2.27;2.17;;;32.40;49.20;;;;;;4994232;28;20448;-65
2022/05/22 10:56:22;;;;;;;2.13;2.03;;;32.20;50.60;;;;;;4994595;28;20465;-64
2022/05/22 10:58:56;;;;;;;2.33;2.13;;;32.60;49.50;;;;;;4994441;28;20457;-64
2022/05/22 11:01:24;;;;;;;1.77;1.67;;;32.40;49.10;;;;;;4995690;28;20826;-64
2022/05/22 11:04:03;;;;;;;1.60;1.50;;;32.50;53.70;;;;;;4995217;28;20453;-64
2022/05/22 11:06:29;;;;;;;4.03;1.80;;;32.90;51.50;;;;;;4994520;28;20525;-65
2022/05/22 11:08:57;;;;;;;1.70;1.60;;;33.20;52.30;;;;;;4994353;28;20460;-65
2022/05/22 11:11:27;;;;;;;2.33;2.10;;;33.50;51.40;;;;;;4994481;28;20556;-65
2022/05/22 11:14:06;;;;;;;3.00;1.93;;;33.70;49.40;;;;;;4994248;28;20955;-65
2022/05/22 11:16:32;;;;;;;2.63;1.50;;;33.70;51.70;;;;;;4994305;28;20461;-65
2022/05/22 11:19:08;;;;;;;1.67;1.53;;;33.10;48.90;;;;;;4994411;28;20460;-65
2022/05/22 11:21:41;;;;;;;2.27;1.77;;;33.10;49.00;;;;;;4994329;28;20484;-65
2022/05/22 11:24:22;;;;;;;1.80;1.70;;;32.60;49.50;;;;;;4993967;28;20932;-65
2022/05/22 11:26:58;;;;;;;3.47;1.77;;;32.00;49.70;;;;;;4994303;28;20443;-65
2022/05/22 11:29:44;;;;;;;1.93;1.70;;;31.70;51.10;;;;;;4994314;28;20436;-65
2022/05/22 11:32:27;;;;;;;2.97;1.80;;;31.80;52.00;;;;;;4993872;28;20490;-64
2022/05/22 11:35:07;;;;;;;2.10;2.00;;;31.60;51.50;;;;;;4993939;28;20474;-64
2022/05/22 11:37:46;;;;;;;2.60;2.10;;;31.30;52.90;;;;;;4994277;28;20462;-64
2022/05/22 11:40:32;;;;;;;2.03;1.70;;;30.90;51.50;;;;;;4994102;28;20438;-64
2022/05/22 11:43:17;;;;;;;2.73;1.50;;;30.70;54.40;;;;;;4994176;28;20473;-64
2022/05/22 11:45:53;;;;;;;1.83;1.70;;;30.60;53.80;;;;;;4994205;28;20979;-64
2022/05/22 11:48:46;;;;;;;2.57;2.37;;;30.40;54.90;;;;;;4993943;28;20434;-64
2022/05/22 11:51:33;;;;;;;1.60;1.50;;;30.20;53.80;;;;;;4994099;28;20502;-64
2022/05/22 11:54:18;;;;;;;2.50;2.30;;;30.20;53.40;;;;;;4994347;28;20497;-64
2022/05/22 11:57:01;;;;;;;2.70;1.73;;;30.10;53.70;;;;;;4994797;28;20520;-64
2022/05/22 11:59:52;;;;;;;2.20;1.80;;;29.60;53.70;;;;;;4994342;28;20445;-64
2022/05/22 12:02:33;;;;;;;2.00;1.70;;;29.50;56.30;;;;;;4996602;28;21014;-64
2022/05/22 12:05:19;;;;;;;1.70;1.60;;;29.50;54.70;;;;;;4997729;28;20441;-63
2022/05/22 12:08:07;;;;;;;2.33;1.73;;;29.00;54.10;;;;;;4997281;28;20924;-64
2022/05/22 12:10:36;;;;;;;1.97;1.80;;;29.40;55.20;;;;;;4997485;28;20473;-64
2022/05/22 12:13:11;;;;;;;2.10;1.73;;;29.40;54.00;;;;;;4997356;28;20449;-64
2022/05/22 12:15:45;;;;;;;2.00;1.90;;;29.50;56.10;;;;;;4997242;28;20552;-64
2022/05/22 12:18:37;;;;;;;2.00;1.90;;;29.50;53.70;;;;;;4997361;28;20442;-64
2022/05/22 12:21:13;;;;;;;2.17;1.90;;;29.70;55.70;;;;;;4997329;28;20543;-65
2022/05/22 12:23:47;;;;;;;2.47;1.70;;;29.80;54.90;;;;;;4997320;28;20441;-64
2022/05/22 12:26:15;;;;;;;2.33;2.03;;;29.60;54.50;;;;;;4997626;28;20496;-64
2022/05/22 12:28:47;;;;;;;2.30;1.80;;;29.60;54.70;;;;;;4996977;28;20464;-64
2022/05/22 12:31:20;;;;;;;1.70;1.47;;;29.50;55.60;;;;;;4997420;28;20812;-64
2022/05/22 12:33:48;;;;;;;2.47;1.90;;;29.40;53.80;;;;;;4997039;28;20468;-64
2022/05/22 12:36:19;;;;;;;2.87;1.70;;;29.20;56.60;;;;;;4997527;28;20477;-64
2022/05/22 12:38:53;;;;;;;1.80;1.53;;;28.90;54.30;;;;;;4997341;28;20788;-64
2022/05/22 12:41:35;;;;;;;1.90;1.53;;;29.00;53.90;;;;;;4996854;28;20485;-64
2022/05/22 12:44:04;;;;;;;1.60;1.50;;;29.20;55.60;;;;;;4996721;28;20453;-63
2022/05/22 12:46:31;;;;;;;1.50;1.40;;;29.20;54.50;;;;;;4996713;28;20799;-63
2022/05/22 12:49:20;;;;;;;1.70;1.60;;;29.30;56.20;;;;;;4996815;28;20449;-64
2022/05/22 12:51:58;;;;;;;2.10;1.90;;;29.30;51.50;;;;;;4996495;28;20910;-64
2022/05/22 12:54:28;;;;;;;1.97;1.83;;;29.00;51.20;;;;;;4996785;28;20442;-64
2022/05/22 12:57:07;;;;;;;1.80;1.63;;;29.00;52.60;;;;;;4996615;28;20482;-64
2022/05/22 12:59:34;;;;;;;2.10;1.50;;;29.00;52.50;;;;;;4996219;28;20905;-64
2022/05/22 13:02:01;;;;;;;1.80;1.40;;;28.90;52.60;;;;;;4996260;28;20489;-64
2022/05/22 13:04:34;;;;;;;2.77;1.87;;;28.70;56.50;;;;;;4996587;28;20454;-64
2022/05/22 13:07:10;;;;;;;1.50;1.50;;;28.70;53.60;;;;;;4997162;28;20497;-64
2022/05/22 13:09:40;;;;;;;2.50;1.53;;;28.80;53.80;;;;;;4997354;28;20860;-64
2022/05/22 13:12:21;;;;;;;1.57;1.47;;;28.80;56.40;;;;;;4996371;28;20477;-64
2022/05/22 13:14:54;;;;;;;3.40;1.93;;;28.80;52.50;;;;;;4998444;28;20444;-64
2022/05/22 13:17:33;;;;;;;1.67;1.57;;;28.90;52.70;;;;;;4996153;28;20477;-64
2022/05/22 13:20:04;;;;;;;1.97;1.87;;;29.00;52.30;;;;;;4996217;28;20445;-64
2022/05/22 13:22:34;;;;;;;2.20;1.67;;;28.90;53.00;;;;;;4996152;28;20484;-64
2022/05/22 13:25:02;;;;;;;1.53;1.40;;;29.00;52.90;;;;;;4996098;28;20461;-64
2022/05/22 13:27:39;;;;;;;2.30;1.40;;;29.00;52.70;;;;;;4996059;28;20453;-64
2022/05/22 13:30:15;;;;;;;1.60;1.50;;;29.00;51.40;;;;;;4995952;28;20473;-63
2022/05/22 13:32:49;;;;;;;1.73;1.63;;;28.80;53.90;;;;;;5000024;28;20446;-64
2022/05/22 13:35:20;;;;;;;2.30;1.63;;;28.60;54.00;;;;;;5004543;28;20442;-64
2022/05/22 13:37:50;;;;;;;1.20;1.20;;;28.40;52.80;;;;;;4997575;28;20995;-63
2022/05/22 13:40:33;;;;;;;1.47;1.37;;;28.30;52.50;;;;;;4996649;28;20461;-64
2022/05/22 13:43:43;;;;;;;1.80;1.70;;;28.20;54.10;;;;;;4995856;28;20442;-63
2022/05/22 13:47:04;;;;;;;3.90;1.57;;;27.90;54.20;;;;;;4995789;28;20450;-63
2022/05/22 13:53:26;;;;;;;2.77;1.50;;;27.70;54.50;;;;;;4995691;28;20418;-63
2022/05/22 13:55:54;;;;;;;3.53;1.40;;;27.60;55.70;;;;;;4995711;28;20442;-63
2022/05/22 13:58:27;;;;;;;1.20;1.20;;;27.40;57.00;;;;;;4995483;28;20449;-63
2022/05/22 14:00:56;;;;;;;2.00;1.90;;;27.40;54.80;;;;;;4995297;28;20488;-63
2022/05/22 14:03:27;;;;;;;1.70;1.60;;;27.50;57.50;;;;;;4995454;28;20462;-63
2022/05/22 14:05:57;;;;;;;1.90;1.47;;;27.60;58.30;;;;;;4995142;28;20485;-63
2022/05/22 14:08:29;;;;;;;2.17;2.07;;;27.60;54.20;;;;;;4995419;28;20489;-63
2022/05/22 14:10:58;;;;;;;2.00;1.73;;;27.50;53.40;;;;;;4994887;28;20969;-64
2022/05/22 14:13:27;;;;;;;2.53;1.70;;;27.60;54.10;;;;;;4995379;28;20442;-64
2022/05/22 14:15:56;;;;;;;2.00;1.90;;;27.70;53.10;;;;;;5000223;28;20460;-63
2022/05/22 14:18:24;;;;;;;2.00;1.77;;;28.00;55.70;;;;;;5005088;28;20465;-63
2022/05/22 14:20:53;;;;;;;1.33;1.23;;;28.10;54.80;;;;;;5004928;28;20987;-63
2022/05/22 14:23:22;;;;;;;1.27;1.20;;;28.30;53.50;;;;;;4998994;28;20461;-63
2022/05/22 14:25:57;;;;;;;1.40;1.30;;;28.40;52.80;;;;;;4995147;28;21073;-63
2022/05/22 14:28:30;;;;;;;1.40;1.33;;;28.60;52.10;;;;;;4995238;28;20508;-63
2022/05/22 14:30:56;;;;;;;1.57;1.47;;;28.70;52.10;;;;;;4995010;28;20822;-63
2022/05/22 14:33:24;;;;;;;2.00;1.43;;;28.80;53.20;;;;;;4995075;28;20461;-63
2022/05/22 14:35:52;;;;;;;1.50;1.40;;;28.90;52.80;;;;;;4994494;28;20941;-63
2022/05/22 14:38:21;;;;;;;4.93;1.57;;;28.90;52.90;;;;;;4994816;28;20480;-63
2022/05/22 14:40:55;;;;;;;1.63;1.40;;;28.60;52.40;;;;;;4994670;28;20513;-63
2022/05/22 14:43:27;;;;;;;2.70;1.67;;;28.40;55.70;;;;;;4994843;28;20449;-63
2022/05/22 14:45:56;;;;;;;1.43;1.30;;;28.00;55.70;;;;;;4994395;28;20442;-63
2022/05/22 14:48:26;;;;;;;2.30;2.20;;;27.90;55.80;;;;;;4994573;28;20453;-63
2022/05/22 14:50:55;;;;;;;1.50;1.40;;;27.70;55.10;;;;;;4994661;28;20474;-64
2022/05/22 14:53:29;;;;;;;1.93;1.67;;;27.80;54.50;;;;;;4994195;28;20967;-63
2022/05/22 14:56:04;;;;;;;3.80;1.60;;;27.90;53.60;;;;;;4994570;28;20442;-63
2022/05/22 14:58:35;;;;;;;1.50;1.40;;;28.00;54.50;;;;;;4994442;28;20797;-64
2022/05/22 15:01:10;;;;;;;1.47;1.40;;;27.90;54.70;;;;;;4994266;28;20481;-63
2022/05/22 15:03:43;;;;;;;3.37;1.50;;;27.80;55.10;;;;;;4994313;28;20927;-63
2022/05/22 15:06:11;;;;;;;1.60;1.60;;;27.70;55.40;;;;;;4994440;28;20442;-63
2022/05/22 15:08:50;;;;;;;1.27;1.20;;;27.60;55.40;;;;;;4994365;28;20458;-63
2022/05/22 15:11:24;;;;;;;3.90;1.73;;;27.60;55.50;;;;;;4994268;28;20478;-63
2022/05/22 15:14:01;;;;;;;1.83;1.20;;;27.60;55.10;;;;;;4994525;28;20438;-63
2022/05/22 15:16:35;;;;;;;1.47;1.37;;;27.70;57.30;;;;;;4993988;28;21011;-64
2022/05/22 15:21:59;;;;;;;1.40;1.30;;;27.50;56.70;;;;;;4994325;28;20914;-64
2022/05/22 15:27:14;;;;;;;2.00;1.90;;;27.20;56.40;;;;;;4994317;28;20409;-64
2022/05/22 15:29:45;;;;;;;2.03;1.93;;;27.20;57.00;;;;;;4994301;28;20442;-64
2022/05/22 15:32:14;;;;;;;2.00;1.90;;;27.20;57.70;;;;;;4993975;28;20492;-64
2022/05/22 15:34:41;;;;;;;2.27;1.40;;;27.20;55.80;;;;;;4994312;28;20464;-64
2022/05/22 15:37:16;;;;;;;4.70;1.50;;;27.00;57.00;;;;;;4996622;28;21011;-65
2022/05/22 15:39:43;;;;;;;1.93;1.83;;;27.00;57.20;;;;;;4997802;28;20932;-65
2022/05/22 15:42:17;;;;;;;2.97;1.80;;;27.00;57.20;;;;;;4997935;28;20477;-65
2022/05/22 15:44:49;;;;;;;1.60;1.30;;;26.90;58.40;;;;;;4997583;28;20468;-65
2022/05/22 15:47:21;;;;;;;2.47;1.70;;;26.90;57.10;;;;;;4997422;28;20490;-65
2022/05/22 15:52:46;;;;;;;2.77;2.57;;;26.80;57.90;;;;;;4997801;28;20422;-64
2022/05/22 15:55:14;;;;;;;2.30;1.90;;;26.70;57.20;;;;;;4997763;28;20457;-64
2022/05/22 15:57:42;;;;;;;2.20;1.43;;;26.70;56.40;;;;;;4997265;28;20817;-64
2022/05/22 16:00:10;;;;;;;5.20;1.90;;;26.60;57.90;;;;;;4997665;28;20468;-64
2022/05/22 16:02:40;;;;;;;1.70;1.60;;;26.40;57.10;;;;;;4997321;28;20473;-63
2022/05/22 16:05:15;;;;;;;2.17;2.07;;;26.40;56.70;;;;;;4997247;28;20464;-64
2022/05/22 16:07:42;;;;;;;2.03;1.80;;;26.30;57.70;;;;;;4997646;28;20444;-63
2022/05/22 16:10:10;;;;;;;2.13;2.03;;;26.30;57.50;;;;;;4997514;28;20454;-64
2022/05/22 16:12:36;;;;;;;1.93;1.77;;;26.20;58.20;;;;;;4997356;28;20473;-63
2022/05/22 16:15:05;;;;;;;3.00;2.00;;;26.10;57.80;;;;;;4997117;28;20952;-63
2022/05/22 16:17:34;;;;;;;2.77;1.87;;;26.20;59.20;;;;;;4997311;28;20560;-64
2022/05/22 16:20:09;;;;;;;2.30;2.10;;;26.10;57.90;;;;;;4996867;28;20454;-63
2022/05/22 16:22:37;;;;;;;2.03;1.80;;;26.00;59.20;;;;;;4997692;28;20531;-63
2022/05/22 16:25:04;;;;;;;1.93;1.83;;;26.00;59.10;;;;;;4997918;28;20457;-64
2022/05/22 16:27:31;;;;;;;2.00;1.80;;;25.90;58.80;;;;;;4997302;28;20461;-64
2022/05/22 16:29:58;;;;;;;2.83;1.77;;;25.80;59.80;;;;;;4997206;28;20458;-63
2022/05/22 16:32:26;;;;;;;2.20;2.10;;;25.70;60.20;;;;;;4997158;28;20531;-63
2022/05/22 16:34:52;;;;;;;2.20;1.93;;;25.60;60.60;;;;;;4998102;28;20446;-63
2022/05/22 16:37:19;;;;;;;2.00;1.90;;;25.60;60.80;;;;;;4997311;28;20605;-64
2022/05/22 16:39:46;;;;;;;2.03;1.93;;;25.60;59.30;;;;;;4997084;28;20461;-63
2022/05/22 16:42:13;;;;;;;3.27;1.90;;;25.50;60.00;;;;;;4996367;28;21007;-64
2022/05/22 16:44:41;;;;;;;2.50;2.30;;;25.50;60.70;;;;;;4996951;28;20817;-64
2022/05/22 16:53:05;;;;;;;3.73;2.00;;;25.30;60.30;;;;;;4975051;28;20537;-64
2022/05/22 16:55:37;;;;;;;2.87;1.60;;;25.30;60.80;;;;;;4975056;28;20464;-64
2022/05/22 16:58:11;;;;;;;1.70;1.60;;;25.30;62.10;;;;;;4986690;28;20477;-63
2022/05/22 17:00:39;;;;;;;2.30;2.10;;;25.20;61.90;;;;;;4996304;28;20488;-64
2022/05/22 17:03:07;;;;;;;3.60;1.70;;;25.10;61.70;;;;;;4996389;28;20945;-64
2022/05/22 17:05:39;;;;;;;2.73;2.50;;;25.00;62.50;;;;;;4996514;28;20449;-64
2022/05/22 17:08:07;;;;;;;2.27;2.07;;;24.90;62.90;;;;;;4996334;28;20450;-63
2022/05/22 17:10:34;;;;;;;2.47;2.27;;;24.90;63.60;;;;;;4996553;28;20506;-63
2022/05/22 17:13:02;;;;;;;3.40;1.60;;;24.80;62.70;;;;;;4997260;28;20453;-64
2022/05/22 17:15:29;;;;;;;1.83;1.73;;;24.70;62.80;;;;;;5004893;28;20464;-64
2022/05/22 17:17:55;;;;;;;1.73;1.63;;;24.70;63.90;;;;;;5007088;28;20485;-64
2022/05/22 17:20:23;;;;;;;1.63;1.53;;;24.70;64.10;;;;;;4996809;28;20463;-64
2022/05/22 17:22:51;;;;;;;1.63;1.40;;;24.60;65.20;;;;;;4996471;28;20461;-64
2022/05/22 17:25:22;;;;;;;3.90;1.67;;;24.50;64.30;;;;;;4996359;28;20457;-64
2022/05/22 17:27:51;;;;;;;2.77;2.07;;;24.40;63.80;;;;;;4996229;28;20441;-64
2022/05/22 17:30:20;;;;;;;2.07;1.97;;;24.40;64.20;;;;;;4995595;28;20859;-64
2022/05/22 17:32:47;;;;;;;2.07;1.97;;;24.30;64.90;;;;;;4995981;28;20829;-64
2022/05/22 17:35:14;;;;;;;2.20;2.03;;;24.30;64.50;;;;;;4995869;28;20457;-64
2022/05/22 17:37:43;;;;;;;2.13;1.87;;;24.20;64.40;;;;;;4996216;28;20477;-64